Time,TemperatureF,DewpointF,PressureIn,WindDirection,WindDirectionDegrees,WindSpeedMPH,WindSpeedGustMPH,Humidity,HourlyPrecipIn,Conditions,Clouds,dailyrainin,SoftwareType,DateUTC
2013-07-18 00:08:00,81.8,73.0,29.86,SSW,192,1.0,5.0,74,0.00,,,0.00,weatherlink.com 1.10,2013-07-18 04:08:00,
2013-07-18 00:23:00,81.4,73.0,29.87,South,183,0.0,2.0,75,0.00,,,0.00,weatherlink.com 1.10,2013-07-18 04:23:00,
2013-07-18 00:38:00,80.7,73.0,29.87,SE,135,0.0,1.0,78,0.00,,,0.00,weatherlink.com 1.10,2013-07-18 04:38:00,
2013-07-18 00:53:00,80.0,73.0,29.86,SE,135,0.0,1.0,79,0.00,,,0.00,weatherlink.com 1.10,2013-07-18 04:53:00,
2013-07-18 01:08:00,79.4,73.0,29.86,SW,217,0.0,0.0,80,0.00,,,0.00,weatherlink.com 1.10,2013-07-18 05:08:00,
2013-07-18 01:23:00,78.9,73.0,29.86,SW,217,0.0,2.0,82,0.00,,,0.00,weatherlink.com 1.10,2013-07-18 05:23:00,
2013-07-18 01:38:00,78.7,73.0,29.86,ESE,121,0.0,2.0,82,0.00,,,0.00,weatherlink.com 1.10,2013-07-18 05:38:00,
2013-07-18 01:53:00,78.5,73.0,29.86,ESE,121,0.0,0.0,82,0.00,,,0.00,weatherlink.com 1.10,2013-07-18 05:53:00,
2013-07-18 02:08:00,78.4,73.0,29.86,ESE,121,1.0,1.0,83,0.00,,,0.00,weatherlink.com 1.10,2013-07-18 06:08:00,
2013-07-18 02:23:00,78.2,73.0,29.85,ESE,121,0.0,1.0,83,0.00,,,0.00,weatherlink.com 1.10,2013-07-18 06:23:00,
2013-07-18 02:38:00,78.0,73.0,29.84,ESE,121,0.0,1.0,84,0.00,,,0.00,weatherlink.com 1.10,2013-07-18 06:38:00,
2013-07-18 02:53:00,77.8,73.0,29.84,ESE,121,0.0,1.0,84,0.00,,,0.00,weatherlink.com 1.10,2013-07-18 06:53:00,
2013-07-18 03:09:00,77.5,73.0,29.84,ESE,121,0.0,0.0,85,0.00,,,0.00,weatherlink.com 1.10,2013-07-18 07:09:00,
2013-07-18 03:24:00,77.1,72.0,29.84,ESE,121,0.0,0.0,85,0.00,,,0.00,weatherlink.com 1.10,2013-07-18 07:24:00,
2013-07-18 03:39:00,76.6,73.0,29.84,ESE,121,0.0,0.0,87,0.00,,,0.00,weatherlink.com 1.10,2013-07-18 07:39:00,
2013-07-18 03:54:00,76.2,73.0,29.83,ESE,121,0.0,1.0,88,0.00,,,0.00,weatherlink.com 1.10,2013-07-18 07:54:00,
2013-07-18 04:09:00,75.9,72.0,29.83,ESE,121,0.0,0.0,88,0.00,,,0.00,weatherlink.com 1.10,2013-07-18 08:09:00,
2013-07-18 04:24:00,75.6,72.0,29.84,ESE,121,0.0,0.0,89,0.00,,,0.00,weatherlink.com 1.10,2013-07-18 08:24:00,
2013-07-18 04:39:00,75.4,72.0,29.84,ESE,121,0.0,1.0,89,0.00,,,0.00,weatherlink.com 1.10,2013-07-18 08:39:00,
2013-07-18 04:54:00,75.1,72.0,29.84,ESE,121,0.0,1.0,90,0.00,,,0.00,weatherlink.com 1.10,2013-07-18 08:54:00,
2013-07-18 05:09:00,74.8,72.0,29.85,ESE,121,0.0,1.0,91,0.00,,,0.00,weatherlink.com 1.10,2013-07-18 09:09:00,
2013-07-18 05:24:00,74.6,72.0,29.85,ESE,121,0.0,2.0,91,0.00,,,0.00,weatherlink.com 1.10,2013-07-18 09:24:00,
2013-07-18 05:39:00,74.4,72.0,29.85,ESE,121,0.0,0.0,91,0.00,,,0.00,weatherlink.com 1.10,2013-07-18 09:39:00,
2013-07-18 05:54:00,74.3,72.0,29.86,ESE,115,0.0,2.0,93,0.00,,,0.00,weatherlink.com 1.10,2013-07-18 09:54:00,
2013-07-18 06:09:00,74.3,73.0,29.86,ESE,115,0.0,0.0,94,0.03,,,0.03,weatherlink.com 1.10,2013-07-18 10:09:00,
2013-07-18 06:24:00,74.7,73.0,29.86,ESE,115,0.0,0.0,95,0.15,,,0.15,weatherlink.com 1.10,2013-07-18 10:24:00,
2013-07-18 06:39:00,75.3,74.0,29.86,NE,48,2.0,2.0,96,0.26,,,0.26,weatherlink.com 1.10,2013-07-18 10:39:00,
2013-07-18 06:54:00,76.1,75.0,29.87,NE,48,0.0,2.0,96,0.26,,,0.26,weatherlink.com 1.10,2013-07-18 10:54:00,
2013-07-18 07:09:00,76.9,75.0,29.87,NE,48,1.0,2.0,95,0.23,,,0.26,weatherlink.com 1.10,2013-07-18 11:09:00,
2013-07-18 07:24:00,77.9,76.0,29.88,North,5,2.0,4.0,92,0.11,,,0.26,weatherlink.com 1.10,2013-07-18 11:24:00,
2013-07-18 07:39:00,79.2,76.0,29.88,North,355,1.0,3.0,89,0.00,,,0.26,weatherlink.com 1.10,2013-07-18 11:39:00,
2013-07-18 07:54:00,80.6,76.0,29.88,NNW,348,3.0,4.0,85,0.00,,,0.26,weatherlink.com 1.10,2013-07-18 11:54:00,
2013-07-18 08:09:00,82.5,77.0,29.88,North,355,3.0,5.0,82,0.00,,,0.26,weatherlink.com 1.10,2013-07-18 12:09:00,
2013-07-18 08:24:00,84.0,77.0,29.88,North,5,2.0,6.0,78,0.00,,,0.26,weatherlink.com 1.10,2013-07-18 12:24:00,
2013-07-18 08:39:00,85.2,77.0,29.88,North,5,3.0,6.0,75,0.00,,,0.26,weatherlink.com 1.10,2013-07-18 12:39:00,
2013-07-18 08:54:00,86.3,77.0,29.88,NNE,16,2.0,8.0,73,0.00,,,0.26,weatherlink.com 1.10,2013-07-18 12:54:00,
2013-07-18 09:09:00,88.0,77.0,29.88,West,263,2.0,7.0,70,0.00,,,0.26,weatherlink.com 1.10,2013-07-18 13:09:00,
2013-07-18 09:24:00,90.1,78.0,29.88,ENE,63,4.0,7.0,67,0.00,,,0.26,weatherlink.com 1.10,2013-07-18 13:24:00,
2013-07-18 09:39:00,92.0,78.0,29.88,NNE,26,1.0,7.0,63,0.00,,,0.26,weatherlink.com 1.10,2013-07-18 13:39:00,
2013-07-18 09:54:00,93.4,78.0,29.88,NNW,327,2.0,9.0,61,0.00,,,0.26,weatherlink.com 1.10,2013-07-18 13:54:00,
2013-07-18 10:10:00,94.7,77.0,29.88,NNE,19,5.0,8.0,56,0.00,,,0.26,weatherlink.com 1.10,2013-07-18 14:10:00,
2013-07-18 10:25:00,95.3,77.0,29.88,North,360,4.0,6.0,55,0.00,,,0.26,weatherlink.com 1.10,2013-07-18 14:25:00,
2013-07-18 10:40:00,96.1,77.0,29.88,NE,36,4.0,5.0,55,0.00,,,0.26,weatherlink.com 1.10,2013-07-18 14:40:00,
2013-07-18 10:55:00,96.3,75.0,29.88,North,9,1.0,6.0,51,0.00,,,0.26,weatherlink.com 1.10,2013-07-18 14:55:00,
2013-07-18 11:10:00,97.1,77.0,29.88,NE,42,2.0,6.0,52,0.00,,,0.26,weatherlink.com 1.10,2013-07-18 15:10:00,
2013-07-18 11:25:00,97.5,76.0,29.87,North,360,3.0,7.0,50,0.00,,,0.26,weatherlink.com 1.10,2013-07-18 15:25:00,
2013-07-18 11:40:00,98.1,76.0,29.88,NE,37,3.0,5.0,50,0.00,,,0.26,weatherlink.com 1.10,2013-07-18 15:40:00,
2013-07-18 11:55:00,97.3,76.0,29.88,North,350,1.0,5.0,50,0.00,,,0.26,weatherlink.com 1.10,2013-07-18 15:55:00,
2013-07-18 12:10:00,97.8,76.0,29.87,NNE,31,5.0,8.0,50,0.00,,,0.26,weatherlink.com 1.10,2013-07-18 16:10:00,
2013-07-18 12:25:00,97.3,76.0,29.87,NNE,22,3.0,5.0,50,0.00,,,0.26,weatherlink.com 1.10,2013-07-18 16:25:00,
2013-07-18 12:40:00,97.1,77.0,29.86,NE,42,3.0,7.0,52,0.00,,,0.26,weatherlink.com 1.10,2013-07-18 16:40:00,
2013-07-18 12:55:00,97.3,77.0,29.86,ENE,58,3.0,7.0,52,0.00,,,0.26,weatherlink.com 1.10,2013-07-18 16:55:00,
2013-07-18 13:10:00,97.3,74.0,29.86,SE,146,2.0,5.0,48,0.00,,,0.26,weatherlink.com 1.10,2013-07-18 17:10:00,
2013-07-18 13:25:00,98.7,74.0,29.86,South,183,2.0,4.0,45,0.00,,,0.26,weatherlink.com 1.10,2013-07-18 17:25:00,
2013-07-18 13:40:00,99.7,76.0,29.85,ESE,107,2.0,6.0,47,0.00,,,0.26,weatherlink.com 1.10,2013-07-18 17:40:00,
2013-07-18 13:56:00,100.1,75.0,29.85,WNW,296,2.0,4.0,45,0.00,,,0.26,weatherlink.com 1.10,2013-07-18 17:56:00,
2013-07-18 14:10:00,100.0,74.0,29.85,ESE,122,3.0,4.0,43,0.00,,,0.26,weatherlink.com 1.10,2013-07-18 18:10:00,
2013-07-18 14:25:00,98.8,76.0,29.84,WSW,256,0.0,4.0,49,0.00,,,0.26,weatherlink.com 1.10,2013-07-18 18:25:00,
2013-07-18 14:40:00,99.5,75.0,29.83,NE,51,0.0,4.0,45,0.00,,,0.26,weatherlink.com 1.10,2013-07-18 18:40:00,
2013-07-18 14:55:00,99.5,77.0,29.83,South,185,0.0,3.0,48,0.00,,,0.26,weatherlink.com 1.10,2013-07-18 18:55:00,
2013-07-18 15:10:00,97.2,76.0,29.83,SE,138,0.0,2.0,51,0.00,,,0.26,weatherlink.com 1.10,2013-07-18 19:10:00,
2013-07-18 15:25:00,94.9,79.0,29.82,North,5,0.0,1.0,60,0.00,,,0.26,weatherlink.com 1.10,2013-07-18 19:25:00,
2013-07-18 15:40:00,92.0,81.0,29.81,NE,49,1.0,4.0,70,0.00,,,0.26,weatherlink.com 1.10,2013-07-18 19:40:00,
2013-07-18 15:55:00,90.9,79.0,29.81,NNE,14,3.0,6.0,68,0.00,,,0.26,weatherlink.com 1.10,2013-07-18 19:55:00,
2013-07-18 16:11:00,91.3,77.0,29.81,NNE,24,2.0,4.0,64,0.00,,,0.26,weatherlink.com 1.10,2013-07-18 20:11:00,
2013-07-18 16:25:00,91.5,76.0,29.82,SW,217,0.0,7.0,60,0.00,,,0.26,weatherlink.com 1.10,2013-07-18 20:25:00,
2013-07-18 16:40:00,90.8,75.0,29.82,West,279,1.0,4.0,61,0.00,,,0.26,weatherlink.com 1.10,2013-07-18 20:40:00,
2013-07-18 16:55:00,90.1,75.0,29.83,NNE,23,0.0,5.0,61,0.00,,,0.26,weatherlink.com 1.10,2013-07-18 20:55:00,
2013-07-18 17:10:00,90.0,75.0,29.82,NNE,24,0.0,5.0,62,0.00,,,0.26,weatherlink.com 1.10,2013-07-18 21:10:00,
2013-07-18 17:25:00,89.2,75.0,29.81,SW,236,1.0,4.0,63,0.00,,,0.26,weatherlink.com 1.10,2013-07-18 21:25:00,
2013-07-18 17:40:00,88.1,74.0,29.80,South,191,1.0,5.0,63,0.00,,,0.26,weatherlink.com 1.10,2013-07-18 21:40:00,
2013-07-18 17:55:00,87.1,73.0,29.80,WSW,238,1.0,6.0,63,0.00,,,0.26,weatherlink.com 1.10,2013-07-18 21:55:00,
2013-07-18 18:10:00,86.3,76.0,29.81,South,175,1.0,3.0,71,0.05,,,0.31,weatherlink.com 1.10,2013-07-18 22:10:00,
2013-07-18 18:25:00,83.6,74.0,29.82,South,175,3.0,5.0,72,0.20,,,0.46,weatherlink.com 1.10,2013-07-18 22:25:00,
2013-07-18 18:40:00,81.4,73.0,29.81,West,270,0.0,3.0,76,0.30,,,0.56,weatherlink.com 1.10,2013-07-18 22:40:00,
2013-07-18 18:55:00,80.2,74.0,29.84,NNW,328,0.0,2.0,80,0.30,,,0.56,weatherlink.com 1.10,2013-07-18 22:55:00,
2013-07-18 19:10:00,79.3,73.0,29.83,North,355,0.0,2.0,80,0.24,,,0.56,weatherlink.com 1.10,2013-07-18 23:10:00,
2013-07-18 19:25:00,79.0,72.0,29.83,SW,222,1.0,3.0,79,0.09,,,0.56,weatherlink.com 1.10,2013-07-18 23:25:00,
2013-07-18 19:40:00,78.7,72.0,29.84,North,11,4.0,5.0,80,0.00,,,0.56,weatherlink.com 1.10,2013-07-18 23:40:00,
2013-07-18 19:56:00,78.2,71.0,29.84,NE,54,1.0,2.0,79,0.00,,,0.56,weatherlink.com 1.10,2013-07-18 23:56:00,
2013-07-18 20:11:00,78.0,72.0,29.84,North,11,2.0,2.0,82,0.00,,,0.56,weatherlink.com 1.10,2013-07-19 00:11:00,
2013-07-18 20:26:00,77.8,72.0,29.83,NE,50,0.0,1.0,83,0.00,,,0.56,weatherlink.com 1.10,2013-07-19 00:26:00,
2013-07-18 20:41:00,77.4,72.0,29.83,NE,50,0.0,1.0,84,0.00,,,0.56,weatherlink.com 1.10,2013-07-19 00:41:00,
2013-07-18 20:56:00,77.0,73.0,29.84,NE,50,0.0,2.0,86,0.00,,,0.56,weatherlink.com 1.10,2013-07-19 00:56:00,
2013-07-18 21:11:00,76.7,73.0,29.84,NE,49,0.0,0.0,87,0.00,,,0.56,weatherlink.com 1.10,2013-07-19 01:11:00,
2013-07-18 21:26:00,76.5,72.0,29.84,NE,49,0.0,1.0,87,0.00,,,0.56,weatherlink.com 1.10,2013-07-19 01:26:00,
2013-07-18 21:41:00,76.2,72.0,29.85,North,360,2.0,3.0,87,0.00,,,0.56,weatherlink.com 1.10,2013-07-19 01:41:00,
2013-07-18 21:56:00,76.4,73.0,29.86,NNE,15,1.0,8.0,89,0.00,,,0.56,weatherlink.com 1.10,2013-07-19 01:56:00,
2013-07-18 22:11:00,76.5,73.0,29.85,NNE,30,2.0,8.0,89,0.00,,,0.56,weatherlink.com 1.10,2013-07-19 02:11:00,
2013-07-18 22:26:00,76.4,73.0,29.84,North,5,1.0,3.0,89,0.00,,,0.56,weatherlink.com 1.10,2013-07-19 02:26:00,
2013-07-18 22:41:00,76.4,73.0,29.84,NE,36,0.0,2.0,89,0.00,,,0.56,weatherlink.com 1.10,2013-07-19 02:41:00,
2013-07-18 22:56:00,76.0,73.0,29.84,SSE,159,0.0,1.0,89,0.00,,,0.56,weatherlink.com 1.10,2013-07-19 02:56:00,
2013-07-18 23:11:00,75.8,73.0,29.84,SSE,159,0.0,1.0,90,0.00,,,0.56,weatherlink.com 1.10,2013-07-19 03:11:00,
2013-07-18 23:26:00,75.6,73.0,29.83,SSE,159,0.0,0.0,90,0.00,,,0.56,weatherlink.com 1.10,2013-07-19 03:26:00,
2013-07-18 23:41:00,75.4,72.0,29.82,SSE,159,0.0,1.0,90,0.00,,,0.56,weatherlink.com 1.10,2013-07-19 03:41:00,
2013-07-18 23:56:00,75.2,73.0,29.82,SSE,159,0.0,1.0,91,0.00,,,0.56,weatherlink.com 1.10,2013-07-19 03:56:00,